Search for airport 
image banner adimage banner adimage banner ad
image banner ad

42CA - John F Kennedy Memorial Hospital

Located in Indio, United States

ICAO - 42CA, IATA -

Data provided by Airmate  

General information

Coordinates: N33°42'21" W116°14'12"
Elevation is feet MSL.
Magnetic variation is 13° East
View others Airports in California

Operational data

Special qualification required
Current time UTC:
Current local time:
Weather at : KTRM - Jacqueline Cochran Rgnl ( 11 km )
METAR: KTRM 150952Z AUTO 34007KT 10SM CLR 32/06 A2969 RMK AO2 SLP056 T03170061
TAF: KTRM 150520Z 1506/1606 VRB05KT P6SM SCT250 FM152000 14008KT P6SM SCT250 FM160300 33007KT P6SM SCT250
View NOTAMs / SUP AIP / TFR affecting this airport [VIEW]
Communications frequencies: [VIEW]

Runways:

Airport contact information

Address: Indio United States

Satellite view of 42CA